Terminal Aerodrome Forecast
Issued by NWS

Home | Current Version | Previous Version | Text Only | Print | Product List | Glossary Off
Versions: 1 2 3 4 5 6 7 8 9 10 11 12 13 14 15 16 17

000
FTUS43 KTOP 220520
TAFMHK
TAF
KMHK 220520Z 2206/2306 05010KT P6SM SCT200
     FM221000 08010KT P6SM SCT200
     FM221700 12013KT P6SM SCT040 BKN100
     FM222030 13013KT P6SM OVC035
     FM230300 14011KT P6SM OVC021=

USA.gov is the U.S. government's official web portal to all federal, state and local government web resources and services.